Time,TemperatureF,DewpointF,PressureIn,WindDirection,WindDirectionDegrees,WindSpeedMPH,WindSpeedGustMPH,Humidity,HourlyPrecipIn,Conditions,Clouds,dailyrainin,SoftwareType,DateUTC
2013-10-03 00:52:00,41.0,31.0,30.17,East,90,2.0,3.0,68,0.00,,,-99.99,,2013-10-03 07:52:00,
2013-10-03 01:52:00,34.0,28.0,30.17,West,270,0.0,1.0,80,0.00,,,-99.99,,2013-10-03 08:52:00,
2013-10-03 02:21:00,35.0,31.0,30.16,East,90,2.0,3.0,84,0.00,,,-99.99,,2013-10-03 09:21:00,
2013-10-03 02:53:00,33.0,29.0,30.15,SE,135,4.0,5.0,84,0.00,,,-99.99,,2013-10-03 09:53:00,
2013-10-03 08:21:00,52.0,36.0,30.14,South,180,1.0,4.0,54,0.00,,,-99.99,,2013-10-03 15:21:00,
2013-10-03 08:33:00,52.0,36.0,30.14,South,180,1.0,4.0,54,0.00,,,-99.99,,2013-10-03 15:33:00,
2013-10-03 09:53:00,59.0,37.0,30.14,South,180,10.0,15.0,43,0.00,,,-99.99,,2013-10-03 16:53:00,
2013-10-03 10:52:00,61.0,36.0,30.13,South,180,13.0,18.0,39,0.00,,,-99.99,,2013-10-03 17:52:00,
2013-10-03 11:01:00,61.0,36.0,30.13,South,180,13.0,18.0,39,0.00,,,-99.99,,2013-10-03 18:01:00,
2013-10-03 13:21:00,65.0,29.0,30.08,South,180,15.0,27.0,26,0.00,,,-99.99,,2013-10-03 20:21:00,
2013-10-03 14:21:00,65.0,22.0,30.06,South,180,28.0,40.0,19,0.00,,,-99.99,,2013-10-03 21:21:00,
2013-10-03 14:33:00,65.0,22.0,30.06,South,180,28.0,40.0,19,0.00,,,-99.99,,2013-10-03 21:33:00,
2013-10-03 17:52:00,61.0,22.0,30.03,SW,225,20.0,33.0,22,0.00,,,-99.99,,2013-10-04 00:52:00,
2013-10-03 18:21:00,59.0,23.0,30.04,SW,225,16.0,27.0,25,0.00,,,-99.99,,2013-10-04 01:21:00,
2013-10-03 18:52:00,57.0,25.0,30.05,SW,225,18.0,28.0,29,0.00,,,-99.99,,2013-10-04 01:52:00,
2013-10-03 19:02:00,57.0,25.0,30.05,SW,225,18.0,28.0,29,0.00,,,-99.99,,2013-10-04 02:02:00,
2013-10-03 19:12:00,57.0,25.0,30.05,SW,225,18.0,28.0,29,0.00,,,-99.99,,2013-10-04 02:12:00,
2013-10-03 19:22:00,57.0,25.0,30.05,SW,225,18.0,28.0,29,0.00,,,-99.99,,2013-10-04 02:22:00,
2013-10-03 19:52:00,54.0,26.0,30.05,SW,225,12.0,19.0,33,0.00,,,-99.99,,2013-10-04 02:52:00,
2013-10-03 20:22:00,52.0,27.0,30.06,SW,225,9.0,15.0,37,0.00,,,-99.99,,2013-10-04 03:22:00,
2013-10-03 20:56:00,50.0,27.0,30.07,SW,225,6.0,8.0,40,0.00,,,-99.99,,2013-10-04 03:56:00,
2013-10-03 21:36:00,49.0,26.0,30.07,West,270,6.0,10.0,41,0.00,,,-99.99,,2013-10-04 04:36:00,
2013-10-03 22:27:00,49.0,19.0,30.09,North,360,3.0,11.0,30,0.00,,,-99.99,,2013-10-04 05:27:00,
2013-10-03 22:36:00,49.0,19.0,30.09,North,360,3.0,11.0,30,0.00,,,-99.99,,2013-10-04 05:36:00,
2013-10-03 22:57:00,47.0,19.0,30.09,SW,225,2.0,4.0,33,0.00,,,-99.99,,2013-10-04 05:57:00,
2013-10-03 23:24:00,45.0,20.0,30.10,SW,225,3.0,6.0,36,0.00,,,-99.99,,2013-10-04 06:24:00,
2013-10-03 23:54:00,42.0,19.0,30.11,NW,315,2.0,4.0,40,0.00,,,-99.99,,2013-10-04 06:54:00,